Time;durP1;ratioP1;P1;durP2;ratioP2;P2;SDS_P1;SDS_P2;PMS_P1;PMS_P2;Temp;Humidity;BMP_temperature;BMP_pressure;BME280_temperature;BME280_humidity;BME280_pressure;Samples;Min_cycle;Max_cycle;Signal;HPM_P1;HPM_P2
2023/04/19 00:00:11;;;;;;;22.10;15.00;;;;;;;9.62;80.93;98900.98;435363;1250;96635;-41
2023/04/19 00:20:47;;;;;;;23.00;14.40;;;;;;;9.54;80.99;98884.13;435294;1250;97472;-41
2023/04/19 00:30:54;;;;;;;19.90;14.90;;;;;;;9.41;81.16;98864.29;435431;1250;109799;-40
2023/04/19 00:41:02;;;;;;;27.00;13.40;;;;;;;9.32;81.18;98850.73;435379;1251;108802;-43
2023/04/19 00:51:10;;;;;;;25.00;14.90;;;;;;;9.29;81.26;98836.55;435270;1250;97932;-41
2023/04/19 01:01:17;;;;;;;21.60;13.30;;;;;;;9.25;81.46;98826.72;435384;1251;108935;-46
2023/04/19 01:11:22;;;;;;;21.00;13.70;;;;;;;9.18;81.68;98815.14;436116;1254;108815;-43
2023/04/19 01:31:36;;;;;;;25.80;17.10;;;;;;;9.05;82.00;98806.01;435258;1253;107395;-40
2023/04/19 01:41:43;;;;;;;26.40;16.40;;;;;;;8.85;82.42;98801.58;435116;1255;96574;-41
2023/04/19 01:51:50;;;;;;;25.80;16.00;;;;;;;8.77;82.56;98793.46;434993;1257;110444;-41
2023/04/19 02:01:58;;;;;;;20.90;14.10;;;;;;;8.77;82.77;98781.66;435277;1255;107729;-41
2023/04/19 02:12:06;;;;;;;22.40;15.40;;;;;;;8.77;82.94;98782.14;435266;1253;97363;-39
2023/04/19 02:22:13;;;;;;;27.00;17.20;;;;;;;8.77;83.27;98777.64;435184;1252;109120;-42
2023/04/19 02:32:20;;;;;;;29.70;20.30;;;;;;;8.71;83.56;98774.98;435114;1253;97681;-40
2023/04/19 02:42:27;;;;;;;29.60;19.20;;;;;;;8.58;84.10;98763.38;435208;1255;110648;-41
2023/04/19 02:52:34;;;;;;;27.10;19.10;;;;;;;8.47;85.18;98753.98;435074;1252;108098;-41
2023/04/19 03:12:49;;;;;;;26.80;18.70;;;;;;;8.36;85.55;98723.54;435020;1252;107917;-39
2023/04/19 03:22:55;;;;;;;19.20;14.70;;;;;;;8.31;85.91;98715.80;434964;1255;97902;-41
2023/04/19 03:33:03;;;;;;;18.20;13.90;;;;;;;8.17;86.27;98711.67;434887;1255;110797;-41
2023/04/19 03:43:10;;;;;;;21.80;14.30;;;;;;;8.06;86.67;98694.39;434861;1255;107284;-41
2023/04/19 04:03:24;;;;;;;14.60;9.60;;;;;;;7.63;87.05;98683.48;434884;1257;107846;-40
2023/04/19 04:13:32;;;;;;;9.90;8.40;;;;;;;7.45;87.68;98680.83;434917;1253;97931;-40
2023/04/19 04:23:39;;;;;;;6.70;5.70;;;;;;;7.31;87.76;98683.27;435195;1255;110200;-40
2023/04/19 04:43:52;;;;;;;5.70;4.20;;;;;;;7.13;87.84;98690.33;434747;1256;96588;-41
2023/04/19 04:54:17;;;;;;;4.90;3.90;;;;;;;7.10;87.60;98693.27;434766;1254;108086;-39
2023/04/19 05:04:24;;;;;;;10.50;6.70;;;;;;;7.15;87.59;98697.92;435045;1265;98015;-41
2023/04/19 05:14:32;;;;;;;40.90;18.50;;;;;;;7.25;87.64;98697.60;435064;1255;109078;-41
2023/04/19 05:24:38;;;;;;;24.60;13.40;;;;;;;7.27;87.32;98694.84;435265;1255;107994;-40
2023/04/19 05:34:48;;;;;;;13.10;7.80;;;;;;;7.26;87.48;98684.98;435201;1252;96652;-41
2023/04/19 05:44:55;;;;;;;28.10;17.00;;;;;;;7.17;87.39;98677.81;435268;1252;110521;-41
2023/04/19 05:55:03;;;;;;;22.30;15.30;;;;;;;6.94;87.39;98685.33;435054;1255;108043;-41
2023/04/19 06:05:08;;;;;;;30.70;20.30;;;;;;;6.71;87.88;98679.53;435032;1256;97957;-41
2023/04/19 06:15:17;;;;;;;29.10;19.40;;;;;;;6.61;87.94;98675.41;435078;1252;109273;-41
2023/04/19 06:25:25;;;;;;;32.50;21.90;;;;;;;6.48;88.33;98670.98;435099;1252;96679;-41
2023/04/19 06:35:33;;;;;;;34.30;20.60;;;;;;;6.47;88.49;98672.44;435071;1255;110785;-41
2023/04/19 06:45:40;;;;;;;33.20;18.40;;;;;;;6.40;88.57;98670.93;435113;1255;108362;-41
2023/04/19 06:55:48;;;;;;;30.00;18.00;;;;;;;6.16;88.81;98673.77;435081;1255;97865;-41
2023/04/19 07:16:04;;;;;;;41.60;20.40;;;;;;;5.89;89.28;98675.80;435069;1257;97896;-41
2023/04/19 07:26:13;;;;;;;42.70;24.20;;;;;;;5.86;89.42;98675.54;435163;1255;108674;-40
2023/04/19 07:36:21;;;;;;;34.10;18.10;;;;;;;5.96;89.33;98669.39;435089;1255;107635;-40
2023/04/19 07:46:27;;;;;;;28.50;15.40;;;;;;;5.95;89.32;98680.16;435130;1252;97952;-41
2023/04/19 07:56:35;;;;;;;33.20;17.50;;;;;;;5.96;89.27;98683.23;435077;1252;108102;-41
2023/04/19 08:06:42;;;;;;;36.90;20.00;;;;;;;6.07;89.23;98684.45;434991;1255;96646;-41
2023/04/19 08:16:49;;;;;;;29.50;16.10;;;;;;;6.06;89.00;98682.89;435065;1255;109632;-40
2023/04/19 08:26:58;;;;;;;31.80;18.20;;;;;;;6.09;89.10;98675.82;435223;1255;108237;-40
2023/04/19 08:57:36;;;;;;;33.60;21.20;;;;;;;6.59;89.07;98676.14;435225;1252;97861;-41
2023/04/19 09:07:44;;;;;;;22.30;14.70;;;;;;;6.77;88.98;98674.02;435154;1252;109893;-41
2023/04/19 09:28:12;;;;;;;20.50;13.10;;;;;;;7.03;88.77;98665.81;435110;1255;97484;-40
2023/04/19 09:38:19;;;;;;;38.10;22.50;;;;;;;7.25;88.71;98660.70;435101;1252;108287;-40
2023/04/19 09:48:26;;;;;;;36.50;24.20;;;;;;;7.36;88.62;98652.98;435075;1252;97859;-40
2023/04/19 09:58:33;;;;;;;20.20;14.00;;;;;;;7.27;88.28;98652.19;435124;1255;109810;-41
2023/04/19 10:09:00;;;;;;;21.10;13.20;;;;;;;7.37;88.25;98656.98;435149;1258;106634;-41
2023/04/19 10:19:11;;;;;;;19.70;12.70;;;;;;;7.59;88.42;98659.36;434724;1252;504202;-40
2023/04/19 10:29:56;;;;;;;32.10;18.40;;;;;;;7.87;88.35;98656.23;435152;1252;107543;-41
2023/04/19 10:50:16;;;;;;;20.70;15.00;;;;;;;7.52;88.02;98660.39;434983;1259;111181;-44
2023/04/19 11:00:24;;;;;;;22.80;13.80;;;;;;;7.52;87.86;98667.94;435254;1265;107886;-41
2023/04/19 11:10:32;;;;;;;23.00;16.60;;;;;;;7.74;87.97;98664.71;435346;1255;97870;-40
2023/04/19 11:20:42;;;;;;;23.70;15.70;;;;;;;7.86;87.89;98660.77;435271;1255;107940;-41
2023/04/19 11:30:51;;;;;;;22.70;16.40;;;;;;;7.77;87.67;98660.36;435408;1250;97928;-41
2023/04/19 11:41:02;;;;;;;20.80;13.90;;;;;;;7.71;87.44;98666.34;435366;1254;108750;-41
2023/04/19 11:51:07;;;;;;;26.50;14.70;;;;;;;7.88;87.65;98666.13;435496;1253;107892;-42
2023/04/19 12:01:15;;;;;;;26.60;17.20;;;;;;;8.08;87.29;98666.72;435396;1250;97803;-40
2023/04/19 12:11:23;;;;;;;19.40;14.70;;;;;;;8.04;87.18;98671.92;435334;1250;108413;-41
2023/04/19 12:21:31;;;;;;;21.90;16.30;;;;;;;8.04;86.97;98672.52;435300;1256;97895;-41
2023/04/19 12:31:39;;;;;;;19.60;15.70;;;;;;;8.22;86.75;98675.69;435398;1256;110125;-41
2023/04/19 12:51:53;;;;;;;24.20;17.70;;;;;;;8.35;86.75;98675.38;435490;1255;98163;-40
2023/04/19 13:02:03;;;;;;;25.80;18.00;;;;;;;8.18;86.26;98677.63;435368;1255;107114;-42
2023/04/19 13:12:11;;;;;;;31.30;19.20;;;;;;;8.29;86.33;98674.99;435326;1251;97887;-40
2023/04/19 13:22:18;;;;;;;43.40;22.20;;;;;;;8.51;86.37;98674.46;435420;1263;109720;-41
2023/04/19 13:32:25;;;;;;;27.10;18.20;;;;;;;8.45;85.99;98674.10;435329;1250;108274;-40
2023/04/19 13:42:32;;;;;;;23.50;16.50;;;;;;;8.22;85.88;98680.44;435535;1255;97970;-40
2023/04/19 13:52:40;;;;;;;25.70;16.60;;;;;;;8.02;85.70;98680.55;435367;1253;109980;-39
2023/04/19 14:02:47;;;;;;;17.00;13.60;;;;;;;7.95;85.70;98680.27;435205;1254;108101;-40
2023/04/19 14:12:58;;;;;;;25.60;16.10;;;;;;;7.85;85.61;98681.11;435416;1256;96678;-40
2023/04/19 14:23:05;;;;;;;24.10;16.80;;;;;;;7.69;85.60;98685.10;435333;1254;108857;-41
2023/04/19 14:33:13;;;;;;;27.20;18.50;;;;;;;7.48;85.54;98687.55;435340;1263;97903;-39
2023/04/19 14:43:20;;;;;;;31.60;19.50;;;;;;;7.56;85.79;98691.11;435371;1263;109710;-41
2023/04/19 14:53:27;;;;;;;24.00;17.80;;;;;;;7.66;85.81;98693.75;435278;1256;110568;-40
2023/04/19 15:03:34;;;;;;;27.40;20.30;;;;;;;7.62;85.71;98696.92;435490;1252;97481;-40
2023/04/19 15:13:43;;;;;;;29.80;21.00;;;;;;;7.54;85.77;98695.45;435373;1254;107931;-40
2023/04/19 15:23:50;;;;;;;29.30;20.70;;;;;;;7.52;85.62;98697.39;435284;1252;97867;-39
2023/04/19 15:34:00;;;;;;;25.50;17.90;;;;;;;7.54;85.69;98700.46;435412;1262;110934;-54
2023/04/19 15:44:08;;;;;;;30.60;19.10;;;;;;;7.50;85.74;98710.92;435295;1251;107562;-40
2023/04/19 15:54:15;;;;;;;24.50;16.00;;;;;;;7.55;85.96;98713.81;435396;1254;97868;-39
2023/04/19 16:04:22;;;;;;;33.10;21.60;;;;;;;7.55;85.92;98720.66;435363;1253;109405;-41
2023/04/19 16:14:29;;;;;;;41.80;26.20;;;;;;;7.44;86.02;98723.86;435325;1255;97878;-39
2023/04/19 16:24:37;;;;;;;29.60;20.80;;;;;;;7.43;86.09;98722.00;435176;1263;110479;-39
2023/04/19 16:44:50;;;;;;;21.50;16.40;;;;;;;7.42;86.21;98726.55;435341;1254;97088;-40
2023/04/19 16:54:58;;;;;;;23.50;16.40;;;;;;;7.40;86.13;98736.42;435333;1253;108365;-41
2023/04/19 17:05:03;;;;;;;21.90;15.80;;;;;;;7.48;86.34;98741.70;435356;1263;97906;-39
2023/04/19 17:15:12;;;;;;;25.60;17.80;;;;;;;7.53;86.33;98745.23;435339;1256;110261;-40
2023/04/19 17:25:19;;;;;;;32.50;21.60;;;;;;;7.47;86.43;98760.73;435467;1251;108801;-41
2023/04/19 17:35:26;;;;;;;22.60;15.90;;;;;;;7.32;86.23;98762.17;435338;1254;97261;-40
2023/04/19 17:45:33;;;;;;;24.60;16.00;;;;;;;7.32;86.38;98767.80;435268;1255;110434;-39
2023/04/19 18:05:47;;;;;;;23.10;17.60;;;;;;;7.29;86.25;98799.89;435348;1254;110708;-40
2023/04/19 18:15:54;;;;;;;30.20;21.00;;;;;;;7.25;86.36;98803.98;435323;1251;108090;-40
2023/04/19 18:26:00;;;;;;;37.40;23.20;;;;;;;7.09;86.65;98812.04;435418;1254;97899;-41
2023/04/19 18:36:08;;;;;;;31.40;21.70;;;;;;;7.10;86.54;98821.66;435341;1254;109968;-41
2023/04/19 18:46:15;;;;;;;31.30;20.30;;;;;;;7.10;86.53;98815.63;435182;1254;108822;-40
2023/04/19 18:56:22;;;;;;;29.10;20.60;;;;;;;7.08;86.58;98821.45;435280;1253;97980;-40
2023/04/19 19:06:50;;;;;;;30.00;21.40;;;;;;;7.10;86.65;98823.48;435413;1272;108252;-41
2023/04/19 19:16:58;;;;;;;35.60;23.70;;;;;;;7.00;86.60;98815.95;435345;1253;97886;-43
2023/04/19 19:27:06;;;;;;;32.50;21.50;;;;;;;6.78;86.66;98807.77;435357;1254;110156;-40
2023/04/19 19:37:15;;;;;;;23.90;18.90;;;;;;;6.71;86.70;98817.40;435123;1249;107659;-41
2023/04/19 19:47:23;;;;;;;34.90;21.10;;;;;;;6.74;86.93;98822.98;435366;1253;97862;-42
2023/04/19 20:07:40;;;;;;;44.20;27.20;;;;;;;6.74;87.04;98839.64;435420;1254;96574;-40
2023/04/19 20:18:08;;;;;;;51.30;33.20;;;;;;;6.63;87.32;98840.98;435417;1249;112125;-39
2023/04/19 20:28:16;;;;;;;49.40;32.00;;;;;;;6.59;87.28;98841.66;435351;1255;107856;-40
2023/04/19 20:38:25;;;;;;;52.30;33.20;;;;;;;6.64;87.29;98833.85;435122;1263;97877;-40
2023/04/19 20:48:31;;;;;;;;;;;;;;;6.68;87.50;98837.17;435241;1254;108873;-42
2023/04/19 20:58:39;;;;;;;47.50;29.40;;;;;;;6.64;87.54;98833.77;435239;1254;96752;-39
2023/04/19 21:08:46;;;;;;;47.10;29.40;;;;;;;6.71;87.67;98842.90;435467;1253;110965;-40
2023/04/19 21:18:53;;;;;;;48.90;29.20;;;;;;;6.72;87.60;98842.90;435344;1255;107334;-40
2023/04/19 21:29:00;;;;;;;60.80;36.60;;;;;;;6.65;87.73;98841.15;435289;1253;96604;-41
2023/04/19 21:39:07;;;;;;;63.90;36.60;;;;;;;6.57;87.98;98841.20;435273;1249;111521;-41
2023/04/19 21:49:14;;;;;;;50.70;31.00;;;;;;;6.53;87.94;98842.66;435186;1253;108258;-42
2023/04/19 21:59:22;;;;;;;51.10;31.60;;;;;;;6.51;88.05;98844.63;435275;1250;97973;-40
2023/04/19 22:09:30;;;;;;;53.30;30.10;;;;;;;6.55;88.23;98844.73;435438;1254;108622;-41
2023/04/19 22:19:39;;;;;;;46.70;28.30;;;;;;;6.60;88.31;98848.52;434998;1253;432959;-40
2023/04/19 22:29:46;;;;;;;51.20;30.50;;;;;;;6.59;88.43;98838.42;435454;1255;109625;-41
2023/04/19 22:39:53;;;;;;;45.40;28.90;;;;;;;6.62;88.53;98839.29;435395;1254;108151;-40
2023/04/19 22:50:01;;;;;;;56.60;33.60;;;;;;;6.63;88.57;98834.04;435235;1252;97132;-41
2023/04/19 23:10:17;;;;;;;66.00;37.30;;;;;;;6.71;88.90;98829.23;435393;1252;97877;-40
2023/04/19 23:20:23;;;;;;;64.90;37.00;;;;;;;6.61;89.04;98835.44;435405;1254;110119;-40
2023/04/19 23:40:36;;;;;;;70.60;37.10;;;;;;;6.66;88.95;98837.36;435404;1249;97505;-41
